sensor_id;sensor_type;location;lat;lon;timestamp;pressure;altitude;pressure_sealevel;temperature;humidity
36502;BME280;25393;46.108;3.390;2023-01-30T00:01:28;99050.13;;;-0.81;88.16
36502;BME280;25393;46.108;3.390;2023-01-30T00:03:55;99055.66;;;-0.87;88.37
36502;BME280;25393;46.108;3.390;2023-01-30T00:06:21;99059.81;;;-1.02;88.52
36502;BME280;25393;46.108;3.390;2023-01-30T00:08:48;99053.59;;;-1.16;88.66
36502;BME280;25393;46.108;3.390;2023-01-30T00:11:16;99060.00;;;-1.23;90.05
36502;BME280;25393;46.108;3.390;2023-01-30T00:13:43;99064.78;;;-1.14;90.69
36502;BME280;25393;46.108;3.390;2023-01-30T00:16:10;99060.91;;;-1.24;91.98
36502;BME280;25393;46.108;3.390;2023-01-30T00:18:38;99084.53;;;-1.10;92.00
36502;BME280;25393;46.108;3.390;2023-01-30T00:21:07;99072.56;;;-1.14;91.98
36502;BME280;25393;46.108;3.390;2023-01-30T00:23:37;99050.84;;;-1.32;92.52
36502;BME280;25393;46.108;3.390;2023-01-30T00:26:08;99057.41;;;-1.23;92.99
36502;BME280;25393;46.108;3.390;2023-01-30T00:28:38;99081.44;;;-0.99;92.86
36502;BME280;25393;46.108;3.390;2023-01-30T00:31:06;99043.31;;;-1.19;93.13
36502;BME280;25393;46.108;3.390;2023-01-30T00:33:32;99054.63;;;-1.02;93.27
36502;BME280;25393;46.108;3.390;2023-01-30T00:36:01;99061.31;;;-0.96;92.65
36502;BME280;25393;46.108;3.390;2023-01-30T00:38:28;99060.38;;;-0.95;92.16
36502;BME280;25393;46.108;3.390;2023-01-30T00:40:55;99073.44;;;-0.78;91.54
36502;BME280;25393;46.108;3.390;2023-01-30T00:43:21;99015.66;;;-1.03;90.44
36502;BME280;25393;46.108;3.390;2023-01-30T00:46:38;99048.75;;;-0.88;91.45
36502;BME280;25393;46.108;3.390;2023-01-30T00:49:23;99047.50;;;-0.98;91.94
36502;BME280;25393;46.108;3.390;2023-01-30T00:51:50;99020.22;;;-1.08;91.65
36502;BME280;25393;46.108;3.390;2023-01-30T00:54:17;99013.50;;;-1.12;92.21
36502;BME280;25393;46.108;3.390;2023-01-30T00:56:43;99012.66;;;-1.13;92.33
36502;BME280;25393;46.108;3.390;2023-01-30T00:59:10;99026.44;;;-1.11;92.63
36502;BME280;25393;46.108;3.390;2023-01-30T01:01:36;99002.88;;;-1.26;92.77
36502;BME280;25393;46.108;3.390;2023-01-30T01:04:04;99013.44;;;-1.29;92.23
36502;BME280;25393;46.108;3.390;2023-01-30T01:06:34;99014.28;;;-1.47;94.07
36502;BME280;25393;46.108;3.390;2023-01-30T01:09:00;99006.50;;;-1.66;95.47
36502;BME280;25393;46.108;3.390;2023-01-30T01:11:27;98971.59;;;-1.98;96.88
36502;BME280;25393;46.108;3.390;2023-01-30T01:13:58;98972.63;;;-2.02;97.39
36502;BME280;25393;46.108;3.390;2023-01-30T01:16:27;98986.38;;;-2.00;98.28
36502;BME280;25393;46.108;3.390;2023-01-30T01:18:54;98991.72;;;-2.03;98.54
36502;BME280;25393;46.108;3.390;2023-01-30T01:21:21;99006.91;;;-1.94;98.44
36502;BME280;25393;46.108;3.390;2023-01-30T01:23:54;98984.69;;;-2.20;97.90
36502;BME280;25393;46.108;3.390;2023-01-30T01:26:21;98995.59;;;-2.12;99.14
36502;BME280;25393;46.108;3.390;2023-01-30T01:28:48;98998.19;;;-2.12;100.00
36502;BME280;25393;46.108;3.390;2023-01-30T01:31:15;98992.13;;;-2.12;100.00
36502;BME280;25393;46.108;3.390;2023-01-30T01:33:42;98999.88;;;-1.92;100.00
36502;BME280;25393;46.108;3.390;2023-01-30T01:36:09;98988.88;;;-2.17;100.00
36502;BME280;25393;46.108;3.390;2023-01-30T01:38:35;98987.47;;;-2.24;99.83
36502;BME280;25393;46.108;3.390;2023-01-30T01:41:03;98995.53;;;-2.30;100.00
36502;BME280;25393;46.108;3.390;2023-01-30T01:43:35;99010.38;;;-2.14;100.00
36502;BME280;25393;46.108;3.390;2023-01-30T01:46:08;99015.38;;;-2.09;100.00
36502;BME280;25393;46.108;3.390;2023-01-30T01:48:50;99013.41;;;-2.04;99.40
36502;BME280;25393;46.108;3.390;2023-01-30T01:54:05;99018.59;;;-2.04;100.00
36502;BME280;25393;46.108;3.390;2023-01-30T01:56:34;99047.19;;;-1.84;99.33
36502;BME280;25393;46.108;3.390;2023-01-30T01:59:08;99033.34;;;-1.84;97.06
36502;BME280;25393;46.108;3.390;2023-01-30T02:01:38;99031.22;;;-1.95;95.25
36502;BME280;25393;46.108;3.390;2023-01-30T02:04:09;99019.41;;;-2.02;94.53
36502;BME280;25393;46.108;3.390;2023-01-30T02:06:38;99058.75;;;-1.91;94.98
36502;BME280;25393;46.108;3.390;2023-01-30T02:09:09;99046.47;;;-1.87;94.82
36502;BME280;25393;46.108;3.390;2023-01-30T02:11:45;99041.94;;;-2.03;96.31
36502;BME280;25393;46.108;3.390;2023-01-30T02:14:13;99083.44;;;-2.01;96.25
36502;BME280;25393;46.108;3.390;2023-01-30T02:16:43;99093.38;;;-2.11;96.54
36502;BME280;25393;46.108;3.390;2023-01-30T02:19:23;99120.34;;;-2.13;96.84
36502;BME280;25393;46.108;3.390;2023-01-30T02:24:55;99139.03;;;-2.25;99.34
36502;BME280;25393;46.108;3.390;2023-01-30T02:27:33;99134.50;;;-2.20;100.00
36502;BME280;25393;46.108;3.390;2023-01-30T02:30:22;99137.94;;;-2.20;100.00
36502;BME280;25393;46.108;3.390;2023-01-30T02:35:37;99124.53;;;-2.11;100.00
36502;BME280;25393;46.108;3.390;2023-01-30T02:38:22;99153.63;;;-2.01;100.00
36502;BME280;25393;46.108;3.390;2023-01-30T02:43:57;99134.13;;;-1.91;100.00
36502;BME280;25393;46.108;3.390;2023-01-30T02:46:52;99115.66;;;-1.85;100.00
36502;BME280;25393;46.108;3.390;2023-01-30T02:49:28;99111.22;;;-1.83;100.00
36502;BME280;25393;46.108;3.390;2023-01-30T02:51:56;99114.19;;;-1.72;100.00
36502;BME280;25393;46.108;3.390;2023-01-30T02:54:25;99117.19;;;-1.61;100.00
36502;BME280;25393;46.108;3.390;2023-01-30T02:56:56;99122.94;;;-1.54;100.00
36502;BME280;25393;46.108;3.390;2023-01-30T02:59:34;99138.88;;;-1.41;100.00
36502;BME280;25393;46.108;3.390;2023-01-30T03:05:14;99096.75;;;-1.12;98.05
36502;BME280;25393;46.108;3.390;2023-01-30T03:10:51;99104.50;;;-1.11;96.61
36502;BME280;25393;46.108;3.390;2023-01-30T03:15:57;99105.47;;;-1.51;99.43
36502;BME280;25393;46.108;3.390;2023-01-30T03:18:25;99104.69;;;-1.53;100.00
36502;BME280;25393;46.108;3.390;2023-01-30T03:20:52;99099.41;;;-1.51;100.00
36502;BME280;25393;46.108;3.390;2023-01-30T03:23:18;99096.06;;;-1.34;100.00
36502;BME280;25393;46.108;3.390;2023-01-30T03:25:46;99081.72;;;-1.43;100.00
36502;BME280;25393;46.108;3.390;2023-01-30T03:28:17;99063.31;;;-1.38;100.00
36502;BME280;25393;46.108;3.390;2023-01-30T03:30:45;99073.72;;;-1.38;100.00
36502;BME280;25393;46.108;3.390;2023-01-30T03:33:12;99072.84;;;-1.39;100.00
36502;BME280;25393;46.108;3.390;2023-01-30T03:35:39;99065.31;;;-1.26;99.44
36502;BME280;25393;46.108;3.390;2023-01-30T03:38:05;99066.47;;;-1.32;99.45
36502;BME280;25393;46.108;3.390;2023-01-30T03:40:32;99074.69;;;-1.22;98.41
36502;BME280;25393;46.108;3.390;2023-01-30T03:42:58;99065.53;;;-1.12;97.49
36502;BME280;25393;46.108;3.390;2023-01-30T03:45:25;99037.34;;;-1.21;97.37
36502;BME280;25393;46.108;3.390;2023-01-30T03:47:51;99068.06;;;-1.11;96.96
36502;BME280;25393;46.108;3.390;2023-01-30T03:50:18;99051.97;;;-1.19;96.99
36502;BME280;25393;46.108;3.390;2023-01-30T03:52:45;99038.41;;;-1.25;97.41
36502;BME280;25393;46.108;3.390;2023-01-30T03:55:11;99059.28;;;-1.08;96.19
36502;BME280;25393;46.108;3.390;2023-01-30T03:57:38;99062.41;;;-1.02;95.55
36502;BME280;25393;46.108;3.390;2023-01-30T04:00:04;99057.66;;;-1.11;95.37
36502;BME280;25393;46.108;3.390;2023-01-30T04:02:31;99053.97;;;-1.24;95.54
36502;BME280;25393;46.108;3.390;2023-01-30T04:04:58;99043.91;;;-1.31;95.80
36502;BME280;25393;46.108;3.390;2023-01-30T04:07:27;99037.28;;;-1.20;94.71
36502;BME280;25393;46.108;3.390;2023-01-30T04:09:54;99046.16;;;-1.24;95.26
36502;BME280;25393;46.108;3.390;2023-01-30T04:12:20;99039.41;;;-1.28;96.20
36502;BME280;25393;46.108;3.390;2023-01-30T04:14:47;99061.47;;;-1.18;96.45
36502;BME280;25393;46.108;3.390;2023-01-30T04:17:13;99050.63;;;-1.09;95.78
36502;BME280;25393;46.108;3.390;2023-01-30T04:19:40;99021.00;;;-1.42;96.21
36502;BME280;25393;46.108;3.390;2023-01-30T04:22:06;99023.28;;;-1.36;96.08
36502;BME280;25393;46.108;3.390;2023-01-30T04:24:33;99052.69;;;-1.34;97.06
36502;BME280;25393;46.108;3.390;2023-01-30T04:26:59;99049.16;;;-1.33;97.02
36502;BME280;25393;46.108;3.390;2023-01-30T04:29:26;99035.38;;;-1.16;94.71
36502;BME280;25393;46.108;3.390;2023-01-30T04:31:52;99011.00;;;-1.32;94.84
36502;BME280;25393;46.108;3.390;2023-01-30T04:34:19;99048.91;;;-1.27;95.09
36502;BME280;25393;46.108;3.390;2023-01-30T04:36:45;99043.75;;;-1.28;94.19
36502;BME280;25393;46.108;3.390;2023-01-30T04:39:12;99033.09;;;-1.41;93.49
36502;BME280;25393;46.108;3.390;2023-01-30T04:41:38;99031.31;;;-1.40;93.54
36502;BME280;25393;46.108;3.390;2023-01-30T04:44:05;99000.03;;;-1.58;94.36
36502;BME280;25393;46.108;3.390;2023-01-30T04:46:31;99009.03;;;-1.65;94.33
36502;BME280;25393;46.108;3.390;2023-01-30T04:48:58;99025.75;;;-1.70;95.02
36502;BME280;25393;46.108;3.390;2023-01-30T04:51:24;99029.22;;;-1.70;95.14
36502;BME280;25393;46.108;3.390;2023-01-30T04:53:51;99021.66;;;-1.76;94.39
36502;BME280;25393;46.108;3.390;2023-01-30T04:56:17;99051.78;;;-1.52;93.35
36502;BME280;25393;46.108;3.390;2023-01-30T04:58:46;99033.75;;;-1.75;93.59
36502;BME280;25393;46.108;3.390;2023-01-30T05:01:32;99046.13;;;-1.80;95.32
36502;BME280;25393;46.108;3.390;2023-01-30T05:03:59;99028.53;;;-1.93;96.84
36502;BME280;25393;46.108;3.390;2023-01-30T05:06:26;99028.53;;;-1.93;97.40
36502;BME280;25393;46.108;3.390;2023-01-30T05:08:54;99046.53;;;-1.89;97.16
36502;BME280;25393;46.108;3.390;2023-01-30T05:11:22;99048.28;;;-1.89;97.63
36502;BME280;25393;46.108;3.390;2023-01-30T05:13:50;99035.66;;;-1.78;97.13
36502;BME280;25393;46.108;3.390;2023-01-30T05:16:18;99025.16;;;-1.95;96.91
36502;BME280;25393;46.108;3.390;2023-01-30T05:18:44;99042.94;;;-1.86;97.13
36502;BME280;25393;46.108;3.390;2023-01-30T05:21:22;99039.09;;;-1.78;96.44
36502;BME280;25393;46.108;3.390;2023-01-30T05:23:54;99023.94;;;-1.87;95.92
36502;BME280;25393;46.108;3.390;2023-01-30T05:26:21;99014.28;;;-1.85;94.90
36502;BME280;25393;46.108;3.390;2023-01-30T05:28:55;99014.94;;;-1.80;93.03
36502;BME280;25393;46.108;3.390;2023-01-30T05:31:22;99044.72;;;-1.68;93.87
36502;BME280;25393;46.108;3.390;2023-01-30T05:33:50;99037.97;;;-1.72;94.18
36502;BME280;25393;46.108;3.390;2023-01-30T05:36:22;99042.75;;;-1.82;94.54
36502;BME280;25393;46.108;3.390;2023-01-30T05:38:49;99029.31;;;-1.91;94.41
36502;BME280;25393;46.108;3.390;2023-01-30T05:41:16;99024.53;;;-1.82;93.65
36502;BME280;25393;46.108;3.390;2023-01-30T05:43:43;99025.41;;;-1.81;94.07
36502;BME280;25393;46.108;3.390;2023-01-30T05:46:11;99049.53;;;-1.98;94.31
36502;BME280;25393;46.108;3.390;2023-01-30T05:48:38;99040.13;;;-2.21;95.79
36502;BME280;25393;46.108;3.390;2023-01-30T05:51:05;99050.28;;;-2.15;96.95
36502;BME280;25393;46.108;3.390;2023-01-30T05:53:32;99049.63;;;-2.20;96.31
36502;BME280;25393;46.108;3.390;2023-01-30T05:56:08;99022.47;;;-2.33;96.55
36502;BME280;25393;46.108;3.390;2023-01-30T05:58:34;99052.41;;;-2.24;96.13
36502;BME280;25393;46.108;3.390;2023-01-30T06:01:03;99055.75;;;-2.42;96.75
36502;BME280;25393;46.108;3.390;2023-01-30T06:03:31;99065.38;;;-2.44;97.58
36502;BME280;25393;46.108;3.390;2023-01-30T06:06:00;99060.72;;;-2.36;98.09
36502;BME280;25393;46.108;3.390;2023-01-30T06:08:28;99056.16;;;-2.52;97.82
36502;BME280;25393;46.108;3.390;2023-01-30T06:11:06;99086.63;;;-2.35;97.39
36502;BME280;25393;46.108;3.390;2023-01-30T06:13:34;99085.88;;;-2.59;98.58
36502;BME280;25393;46.108;3.390;2023-01-30T06:16:01;99104.09;;;-2.60;98.59
36502;BME280;25393;46.108;3.390;2023-01-30T06:18:29;99123.13;;;-2.60;98.77
36502;BME280;25393;46.108;3.390;2023-01-30T06:20:56;99124.22;;;-2.65;98.97
36502;BME280;25393;46.108;3.390;2023-01-30T06:23:23;99111.78;;;-2.79;98.96
36502;BME280;25393;46.108;3.390;2023-01-30T06:25:51;99086.31;;;-2.91;99.25
36502;BME280;25393;46.108;3.390;2023-01-30T06:28:24;99116.34;;;-2.64;98.56
36502;BME280;25393;46.108;3.390;2023-01-30T06:30:54;99103.50;;;-2.67;97.90
36502;BME280;25393;46.108;3.390;2023-01-30T06:33:20;99088.72;;;-2.65;96.78
36502;BME280;25393;46.108;3.390;2023-01-30T06:35:50;99087.09;;;-2.67;96.20
36502;BME280;25393;46.108;3.390;2023-01-30T06:38:19;99122.22;;;-2.37;95.88
36502;BME280;25393;46.108;3.390;2023-01-30T06:40:47;99103.66;;;-2.49;95.39
36502;BME280;25393;46.108;3.390;2023-01-30T06:43:15;99118.72;;;-2.36;94.71
36502;BME280;25393;46.108;3.390;2023-01-30T06:45:42;99123.81;;;-2.34;94.94
36502;BME280;25393;46.108;3.390;2023-01-30T06:48:09;99108.63;;;-2.43;95.47
36502;BME280;25393;46.108;3.390;2023-01-30T06:50:36;99119.91;;;-2.44;95.16
36502;BME280;25393;46.108;3.390;2023-01-30T06:53:05;99134.38;;;-2.39;95.49
36502;BME280;25393;46.108;3.390;2023-01-30T06:55:33;99114.47;;;-2.38;95.59
36502;BME280;25393;46.108;3.390;2023-01-30T06:58:08;99134.34;;;-2.37;95.29
36502;BME280;25393;46.108;3.390;2023-01-30T07:00:36;99133.31;;;-2.33;95.25
36502;BME280;25393;46.108;3.390;2023-01-30T07:03:08;99132.78;;;-2.21;94.81
36502;BME280;25393;46.108;3.390;2023-01-30T07:05:37;99119.88;;;-2.43;94.04
36502;BME280;25393;46.108;3.390;2023-01-30T07:08:04;99129.16;;;-2.37;94.01
36502;BME280;25393;46.108;3.390;2023-01-30T07:10:31;99150.47;;;-2.29;94.55
36502;BME280;25393;46.108;3.390;2023-01-30T07:12:58;99132.78;;;-2.41;93.90
36502;BME280;25393;46.108;3.390;2023-01-30T07:15:25;99141.22;;;-2.36;93.77
36502;BME280;25393;46.108;3.390;2023-01-30T07:17:55;99163.31;;;-2.26;93.84
36502;BME280;25393;46.108;3.390;2023-01-30T07:20:25;99130.84;;;-2.36;93.80
36502;BME280;25393;46.108;3.390;2023-01-30T07:22:56;99172.44;;;-1.96;93.81
36502;BME280;25393;46.108;3.390;2023-01-30T07:25:27;99129.97;;;-2.15;92.39
36502;BME280;25393;46.108;3.390;2023-01-30T07:27:58;99162.13;;;-1.77;89.17
36502;BME280;25393;46.108;3.390;2023-01-30T07:30:30;99167.31;;;-1.77;89.09
36502;BME280;25393;46.108;3.390;2023-01-30T07:32:58;99162.03;;;-1.76;89.03
36502;BME280;25393;46.108;3.390;2023-01-30T07:35:28;99166.06;;;-1.69;88.87
36502;BME280;25393;46.108;3.390;2023-01-30T07:37:55;99174.44;;;-1.82;90.24
36502;BME280;25393;46.108;3.390;2023-01-30T07:40:25;99178.81;;;-1.83;90.94
36502;BME280;25393;46.108;3.390;2023-01-30T07:43:03;99179.19;;;-1.92;92.77
36502;BME280;25393;46.108;3.390;2023-01-30T07:45:38;99158.53;;;-1.95;92.03
36502;BME280;25393;46.108;3.390;2023-01-30T07:48:06;99171.34;;;-1.90;92.96
36502;BME280;25393;46.108;3.390;2023-01-30T07:50:33;99174.19;;;-1.96;94.35
36502;BME280;25393;46.108;3.390;2023-01-30T07:53:02;99170.75;;;-1.97;94.57
36502;BME280;25393;46.108;3.390;2023-01-30T07:55:30;99156.31;;;-2.04;95.12
36502;BME280;25393;46.108;3.390;2023-01-30T07:57:57;99153.34;;;-1.95;95.15
36502;BME280;25393;46.108;3.390;2023-01-30T08:00:24;99133.84;;;-2.05;94.63
36502;BME280;25393;46.108;3.390;2023-01-30T08:02:50;99170.19;;;-1.63;93.30
36502;BME280;25393;46.108;3.390;2023-01-30T08:05:20;99134.16;;;-1.72;91.42
36502;BME280;25393;46.108;3.390;2023-01-30T08:07:49;99133.66;;;-1.80;90.94
36502;BME280;25393;46.108;3.390;2023-01-30T08:10:16;99154.63;;;-1.65;91.24
36502;BME280;25393;46.108;3.390;2023-01-30T08:12:43;99185.56;;;-1.38;90.98
36502;BME280;25393;46.108;3.390;2023-01-30T08:15:12;99175.72;;;-1.32;90.32
36502;BME280;25393;46.108;3.390;2023-01-30T08:17:39;99161.81;;;-1.31;90.62
36502;BME280;25393;46.108;3.390;2023-01-30T08:20:06;99150.56;;;-1.31;88.33
36502;BME280;25393;46.108;3.390;2023-01-30T08:22:33;99137.59;;;-1.52;89.09
36502;BME280;25393;46.108;3.390;2023-01-30T08:25:00;99135.22;;;-1.37;89.45
36502;BME280;25393;46.108;3.390;2023-01-30T08:27:27;99152.13;;;-1.27;89.30
36502;BME280;25393;46.108;3.390;2023-01-30T08:29:54;99142.81;;;-1.33;89.81
36502;BME280;25393;46.108;3.390;2023-01-30T08:32:21;99149.09;;;-1.18;88.65
36502;BME280;25393;46.108;3.390;2023-01-30T08:34:50;99180.03;;;-0.93;89.15
36502;BME280;25393;46.108;3.390;2023-01-30T08:37:19;99187.50;;;-0.86;89.04
36502;BME280;25393;46.108;3.390;2023-01-30T08:39:49;99151.41;;;-0.93;88.25
36502;BME280;25393;46.108;3.390;2023-01-30T08:42:15;99196.09;;;-0.65;87.93
36502;BME280;25393;46.108;3.390;2023-01-30T08:44:42;99194.31;;;-0.46;86.73
36502;BME280;25393;46.108;3.390;2023-01-30T08:47:09;99182.00;;;-0.42;86.39
36502;BME280;25393;46.108;3.390;2023-01-30T08:49:36;99175.69;;;-0.38;86.41
36502;BME280;25393;46.108;3.390;2023-01-30T08:52:03;99205.13;;;-0.01;85.58
36502;BME280;25393;46.108;3.390;2023-01-30T08:54:32;99172.53;;;-0.09;84.01
36502;BME280;25393;46.108;3.390;2023-01-30T08:57:01;99214.03;;;0.30;82.55
36502;BME280;25393;46.108;3.390;2023-01-30T08:59:27;99220.41;;;0.24;83.86
36502;BME280;25393;46.108;3.390;2023-01-30T09:01:54;99218.56;;;0.26;83.49
36502;BME280;25393;46.108;3.390;2023-01-30T09:04:20;99212.16;;;0.32;82.03
36502;BME280;25393;46.108;3.390;2023-01-30T09:06:50;99213.94;;;0.48;80.24
36502;BME280;25393;46.108;3.390;2023-01-30T09:09:19;99196.09;;;0.24;79.64
36502;BME280;25393;46.108;3.390;2023-01-30T09:11:46;99217.75;;;0.07;81.22
36502;BME280;25393;46.108;3.390;2023-01-30T09:14:14;99226.59;;;0.22;81.84
36502;BME280;25393;46.108;3.390;2023-01-30T09:16:48;99222.16;;;0.24;81.23
36502;BME280;25393;46.108;3.390;2023-01-30T09:19:26;99234.19;;;0.26;79.47
36502;BME280;25393;46.108;3.390;2023-01-30T09:21:55;99234.56;;;0.19;79.38
36502;BME280;25393;46.108;3.390;2023-01-30T09:24:25;99210.34;;;0.17;79.10
36502;BME280;25393;46.108;3.390;2023-01-30T09:26:56;99235.72;;;-0.04;78.64
36502;BME280;25393;46.108;3.390;2023-01-30T09:29:27;99243.25;;;-0.17;80.21
36502;BME280;25393;46.108;3.390;2023-01-30T09:31:54;99224.63;;;-0.26;80.41
36502;BME280;25393;46.108;3.390;2023-01-30T09:34:25;99232.94;;;-0.18;80.35
36502;BME280;25393;46.108;3.390;2023-01-30T09:36:55;99246.34;;;-0.09;80.28
36502;BME280;25393;46.108;3.390;2023-01-30T09:39:22;99223.47;;;-0.21;81.08
36502;BME280;25393;46.108;3.390;2023-01-30T09:42:39;99256.88;;;0.07;81.05
36502;BME280;25393;46.108;3.390;2023-01-30T09:45:11;99254.75;;;0.32;81.25
36502;BME280;25393;46.108;3.390;2023-01-30T09:48:02;99256.59;;;0.47;79.43
36502;BME280;25393;46.108;3.390;2023-01-30T09:53:30;99249.94;;;0.42;80.19
36502;BME280;25393;46.108;3.390;2023-01-30T09:55:59;99215.63;;;0.15;78.30
36502;BME280;25393;46.108;3.390;2023-01-30T09:58:55;99237.34;;;0.33;77.48
36502;BME280;25393;46.108;3.390;2023-01-30T10:01:50;99232.28;;;0.13;79.01
36502;BME280;25393;46.108;3.390;2023-01-30T10:04:35;99259.53;;;0.41;79.21
36502;BME280;25393;46.108;3.390;2023-01-30T10:15:48;99245.13;;;1.17;76.21
36502;BME280;25393;46.108;3.390;2023-01-30T10:27:03;99250.56;;;1.77;72.98
36502;BME280;25393;46.108;3.390;2023-01-30T10:29:37;99239.13;;;1.79;71.98
36502;BME280;25393;46.108;3.390;2023-01-30T10:32:14;99270.41;;;1.81;70.30
36502;BME280;25393;46.108;3.390;2023-01-30T10:34:47;99270.81;;;1.73;72.11
36502;BME280;25393;46.108;3.390;2023-01-30T10:37:40;99262.56;;;1.81;71.68
36502;BME280;25393;46.108;3.390;2023-01-30T10:40:22;99245.53;;;1.74;71.33
36502;BME280;25393;46.108;3.390;2023-01-30T10:43:07;99232.50;;;2.04;69.98
36502;BME280;25393;46.108;3.390;2023-01-30T10:45:49;99245.41;;;2.07;69.88
36502;BME280;25393;46.108;3.390;2023-01-30T10:48:43;99238.28;;;2.24;69.56
36502;BME280;25393;46.108;3.390;2023-01-30T10:51:52;99225.25;;;2.38;69.33
36502;BME280;25393;46.108;3.390;2023-01-30T10:54:42;99220.19;;;2.35;69.93
36502;BME280;25393;46.108;3.390;2023-01-30T10:57:26;99193.22;;;2.49;70.03
36502;BME280;25393;46.108;3.390;2023-01-30T11:00:04;99157.75;;;2.29;69.47
36502;BME280;25393;46.108;3.390;2023-01-30T11:03:01;99192.69;;;2.72;69.17
36502;BME280;25393;46.108;3.390;2023-01-30T11:05:41;99189.03;;;3.17;67.83
36502;BME280;25393;46.108;3.390;2023-01-30T11:08:17;99188.88;;;3.06;67.01
36502;BME280;25393;46.108;3.390;2023-01-30T11:10:45;99146.91;;;3.61;66.33
36502;BME280;25393;46.108;3.390;2023-01-30T11:13:30;99174.75;;;4.68;63.91
36502;BME280;25393;46.108;3.390;2023-01-30T11:16:04;99160.44;;;4.72;62.31
36502;BME280;25393;46.108;3.390;2023-01-30T11:18:32;99140.88;;;4.13;63.26
36502;BME280;25393;46.108;3.390;2023-01-30T11:21:23;99168.09;;;3.58;64.34
36502;BME280;25393;46.108;3.390;2023-01-30T11:24:14;99191.28;;;3.91;65.51
36502;BME280;25393;46.108;3.390;2023-01-30T11:26:42;99158.50;;;4.11;64.07
36502;BME280;25393;46.108;3.390;2023-01-30T11:29:33;99157.59;;;4.24;64.31
36502;BME280;25393;46.108;3.390;2023-01-30T11:32:05;99162.72;;;4.13;64.95
36502;BME280;25393;46.108;3.390;2023-01-30T11:34:36;99133.97;;;3.85;64.00
36502;BME280;25393;46.108;3.390;2023-01-30T11:37:40;99167.94;;;4.00;65.65
36502;BME280;25393;46.108;3.390;2023-01-30T11:40:21;99165.22;;;3.75;65.92
36502;BME280;25393;46.108;3.390;2023-01-30T11:43:02;99158.09;;;3.77;65.64
36502;BME280;25393;46.108;3.390;2023-01-30T11:45:34;99153.53;;;3.67;66.85
36502;BME280;25393;46.108;3.390;2023-01-30T11:48:09;99141.75;;;3.60;69.35
36502;BME280;25393;46.108;3.390;2023-01-30T11:51:00;99109.66;;;3.29;67.77
36502;BME280;25393;46.108;3.390;2023-01-30T11:58:41;99114.13;;;3.81;66.49
36502;BME280;25393;46.108;3.390;2023-01-30T12:01:12;99114.13;;;4.20;65.03
36502;BME280;25393;46.108;3.390;2023-01-30T12:03:50;99120.84;;;4.24;65.43
36502;BME280;25393;46.108;3.390;2023-01-30T12:06:31;99107.09;;;4.08;65.48
36502;BME280;25393;46.108;3.390;2023-01-30T12:08:58;99115.47;;;4.26;64.99
36502;BME280;25393;46.108;3.390;2023-01-30T12:14:33;99096.28;;;4.25;66.69
36502;BME280;25393;46.108;3.390;2023-01-30T12:17:21;99086.09;;;4.33;66.02
36502;BME280;25393;46.108;3.390;2023-01-30T12:19:56;99097.09;;;4.26;67.17
36502;BME280;25393;46.108;3.390;2023-01-30T12:22:34;99088.81;;;4.19;66.36
36502;BME280;25393;46.108;3.390;2023-01-30T12:25:18;99077.03;;;3.99;67.79
36502;BME280;25393;46.108;3.390;2023-01-30T12:30:38;99084.06;;;3.99;67.77
36502;BME280;25393;46.108;3.390;2023-01-30T12:33:11;99088.91;;;4.05;67.88
36502;BME280;25393;46.108;3.390;2023-01-30T12:38:32;99082.09;;;4.15;69.10
36502;BME280;25393;46.108;3.390;2023-01-30T12:44:00;99072.53;;;4.01;68.54
36502;BME280;25393;46.108;3.390;2023-01-30T12:46:36;99080.81;;;3.95;67.72
36502;BME280;25393;46.108;3.390;2023-01-30T12:52:00;99070.50;;;3.80;68.94
36502;BME280;25393;46.108;3.390;2023-01-30T12:54:49;99070.25;;;3.58;69.31
36502;BME280;25393;46.108;3.390;2023-01-30T13:00:31;99075.06;;;3.51;70.81
36502;BME280;25393;46.108;3.390;2023-01-30T13:03:30;99065.75;;;3.33;70.76
36502;BME280;25393;46.108;3.390;2023-01-30T13:06:14;99035.56;;;3.13;71.16
36502;BME280;25393;46.108;3.390;2023-01-30T13:11:35;99065.22;;;3.67;69.70
36502;BME280;25393;46.108;3.390;2023-01-30T13:19:41;99065.09;;;3.56;71.26
36502;BME280;25393;46.108;3.390;2023-01-30T13:27:55;99047.44;;;3.85;70.45
36502;BME280;25393;46.108;3.390;2023-01-30T13:30:24;99045.94;;;3.81;69.99
36502;BME280;25393;46.108;3.390;2023-01-30T13:32:57;98994.00;;;3.73;70.32
36502;BME280;25393;46.108;3.390;2023-01-30T13:35:44;99042.22;;;4.10;70.14
36502;BME280;25393;46.108;3.390;2023-01-30T13:38:20;99020.25;;;4.36;69.26
36502;BME280;25393;46.108;3.390;2023-01-30T13:40:48;99027.06;;;4.51;68.38
36502;BME280;25393;46.108;3.390;2023-01-30T13:43:28;99011.16;;;4.78;68.15
36502;BME280;25393;46.108;3.390;2023-01-30T13:46:00;99027.13;;;5.12;65.90
36502;BME280;25393;46.108;3.390;2023-01-30T13:57:06;99033.97;;;5.38;66.13
36502;BME280;25393;46.108;3.390;2023-01-30T14:00:07;99026.88;;;5.27;65.56
36502;BME280;25393;46.108;3.390;2023-01-30T14:08:22;99011.88;;;4.80;67.10
36502;BME280;25393;46.108;3.390;2023-01-30T14:10:54;98991.31;;;4.74;67.70
36502;BME280;25393;46.108;3.390;2023-01-30T14:13:23;98997.94;;;5.03;71.23
36502;BME280;25393;46.108;3.390;2023-01-30T14:15:58;99002.47;;;5.25;67.25
36502;BME280;25393;46.108;3.390;2023-01-30T14:18:34;98974.78;;;5.09;66.96
36502;BME280;25393;46.108;3.390;2023-01-30T14:24:02;98996.19;;;5.63;66.48
36502;BME280;25393;46.108;3.390;2023-01-30T14:40:01;98999.31;;;5.44;66.56
36502;BME280;25393;46.108;3.390;2023-01-30T14:42:29;99011.88;;;5.75;65.40
36502;BME280;25393;46.108;3.390;2023-01-30T14:47:31;99010.50;;;5.59;66.29
36502;BME280;25393;46.108;3.390;2023-01-30T14:50:21;99007.59;;;5.50;66.45
36502;BME280;25393;46.108;3.390;2023-01-30T14:52:49;99022.84;;;5.34;67.57
36502;BME280;25393;46.108;3.390;2023-01-30T14:55:23;99033.50;;;5.44;67.46
36502;BME280;25393;46.108;3.390;2023-01-30T14:57:59;98989.69;;;5.32;67.75
36502;BME280;25393;46.108;3.390;2023-01-30T15:00:33;99028.03;;;5.47;67.31
36502;BME280;25393;46.108;3.390;2023-01-30T15:03:08;99016.31;;;5.51;66.59
36502;BME280;25393;46.108;3.390;2023-01-30T15:05:43;99002.41;;;5.38;67.06
36502;BME280;25393;46.108;3.390;2023-01-30T15:08:18;98999.59;;;5.28;67.62
36502;BME280;25393;46.108;3.390;2023-01-30T15:10:57;99014.38;;;5.18;67.36
36502;BME280;25393;46.108;3.390;2023-01-30T15:19:02;99021.09;;;5.22;67.62
36502;BME280;25393;46.108;3.390;2023-01-30T15:25:15;99029.59;;;5.02;68.44
36502;BME280;25393;46.108;3.390;2023-01-30T15:27:59;99028.56;;;4.92;69.55